Time;durP1;ratioP1;P1;durP2;ratioP2;P2;SDS_P1;SDS_P2;PMS_P1;PMS_P2;Temp;Humidity;BMP_temperature;BMP_pressure;BME280_temperature;BME280_humidity;BME280_pressure;Samples;Min_cycle;Max_cycle;Signal;HPM_P1;HPM_P2
2023/06/06 00:02:26;;;;;;;20.63;9.67;;;;;;;;;;6219679;28;20045;-58
2023/06/06 00:05:27;;;;;;;23.70;11.52;;;;;;;;;;6221075;28;20042;-57
2023/06/06 00:08:28;;;;;;;21.75;10.98;;;;;;;;;;6219570;28;20144;-58
2023/06/06 00:11:28;;;;;;;19.50;9.57;;;;;;;;;;6219818;28;20041;-56
2023/06/06 00:14:31;;;;;;;17.87;9.33;;;;;;;;;;6218465;28;20041;-53
2023/06/06 00:17:31;;;;;;;17.35;8.65;;;;;;;;;;6217180;28;20042;-57
2023/06/06 00:20:32;;;;;;;16.60;7.97;;;;;;;;;;6219047;28;20493;-58
2023/06/06 00:23:33;;;;;;;14.23;7.23;;;;;;;;;;6220712;28;20045;-58
2023/06/06 00:26:34;;;;;;;15.37;7.30;;;;;;;;;;6219297;28;20050;-57
2023/06/06 00:29:34;;;;;;;16.60;7.23;;;;;;;;;;6220346;28;20041;-57
2023/06/06 00:32:35;;;;;;;14.27;6.97;;;;;;;;;;6220157;28;20049;-59
2023/06/06 00:35:35;;;;;;;14.43;7.53;;;;;;;;;;6219223;28;20056;-55
2023/06/06 00:38:36;;;;;;;12.10;7.20;;;;;;;;;;6226494;28;20084;-58
2023/06/06 00:41:37;;;;;;;13.87;7.00;;;;;;;;;;6221849;28;20050;-56
2023/06/06 00:44:37;;;;;;;12.23;6.80;;;;;;;;;;6221219;28;20153;-58
2023/06/06 00:47:38;;;;;;;13.80;7.30;;;;;;;;;;6221469;28;20038;-54
2023/06/06 00:50:40;;;;;;;13.90;6.47;;;;;;;;;;6220614;28;20038;-55
2023/06/06 00:53:41;;;;;;;16.83;7.32;;;;;;;;;;6220738;28;20537;-57
2023/06/06 00:56:43;;;;;;;12.20;6.70;;;;;;;;;;6221506;28;20496;-59
2023/06/06 00:59:45;;;;;;;17.50;7.63;;;;;;;;;;6219705;28;20069;-56
2023/06/06 01:02:47;;;;;;;14.07;6.68;;;;;;;;;;6216458;28;20050;-58
2023/06/06 01:05:48;;;;;;;12.00;7.15;;;;;;;;;;6218791;28;20096;-58
2023/06/06 01:08:49;;;;;;;15.83;7.07;;;;;;;;;;6218788;28;20053;-57
2023/06/06 01:12:10;;;;;;;14.83;7.20;;;;;;;;;;6222629;28;20060;-57
2023/06/06 01:15:21;;;;;;;16.27;7.05;;;;;;;;;;6220922;28;20046;-55
2023/06/06 01:18:22;;;;;;;17.73;7.75;;;;;;;;;;6223028;28;20068;-49
2023/06/06 01:21:33;;;;;;;16.63;6.70;;;;;;;;;;6221991;28;20172;-51
2023/06/06 01:24:36;;;;;;;15.93;7.03;;;;;;;;;;6223796;28;20331;-56
2023/06/06 01:27:36;;;;;;;14.95;7.00;;;;;;;;;;6227475;28;20048;-57
2023/06/06 01:30:37;;;;;;;19.03;6.90;;;;;;;;;;6221353;28;20046;-56
2023/06/06 01:33:44;;;;;;;16.17;7.20;;;;;;;;;;6222823;28;20572;-53
2023/06/06 01:36:56;;;;;;;21.77;7.55;;;;;;;;;;6221530;28;20081;-58
2023/06/06 01:39:57;;;;;;;;;;;;;;;;;;6222580;28;20099;-58
2023/06/06 01:42:59;;;;;;;15.07;7.68;;;;;;;;;;6221805;28;19921;-58
2023/06/06 01:46:01;;;;;;;15.40;7.43;;;;;;;;;;6224582;28;20557;-55
2023/06/06 01:49:02;;;;;;;23.35;7.90;;;;;;;;;;6231517;28;20041;-54
2023/06/06 01:52:04;;;;;;;20.63;8.60;;;;;;;;;;6237856;28;20064;-54
2023/06/06 01:55:05;;;;;;;18.42;8.65;;;;;;;;;;6226455;28;20128;-47
2023/06/06 01:58:07;;;;;;;16.92;7.93;;;;;;;;;;6224566;28;20058;-57
2023/06/06 02:01:08;;;;;;;17.83;8.18;;;;;;;;;;6221786;28;20493;-53
2023/06/06 02:04:09;;;;;;;12.73;7.60;;;;;;;;;;6220632;28;20733;-56
2023/06/06 02:07:11;;;;;;;20.17;8.20;;;;;;;;;;6222129;28;20041;-53
2023/06/06 02:10:12;;;;;;;17.40;8.95;;;;;;;;;;6222414;28;20057;-56
2023/06/06 02:13:12;;;;;;;16.57;7.80;;;;;;;;;;6221075;28;20042;-54
2023/06/06 02:16:13;;;;;;;16.20;7.93;;;;;;;;;;6222378;28;20049;-56
2023/06/06 02:19:13;;;;;;;14.83;8.07;;;;;;;;;;6223948;28;20046;-52
2023/06/06 02:22:14;;;;;;;17.63;8.17;;;;;;;;;;6221209;28;20049;-55
2023/06/06 02:25:16;;;;;;;18.67;8.02;;;;;;;;;;6221698;28;20456;-55
2023/06/06 02:28:17;;;;;;;;;;;;;;;;;;6223513;28;20049;-50
2023/06/06 02:31:17;;;;;;;17.45;8.13;;;;;;;;;;6222378;28;19925;-57
2023/06/06 02:34:18;;;;;;;15.43;8.32;;;;;;;;;;6222824;28;20057;-55
2023/06/06 02:37:19;;;;;;;19.40;8.43;;;;;;;;;;6224574;28;20053;-57
2023/06/06 02:40:20;;;;;;;23.73;8.55;;;;;;;;;;6221565;28;20057;-59
2023/06/06 02:43:20;;;;;;;18.67;8.70;;;;;;;;;;6222177;28;20049;-58
2023/06/06 02:46:21;;;;;;;20.50;8.85;;;;;;;;;;6218561;28;20404;-56
2023/06/06 02:49:22;;;;;;;27.05;8.90;;;;;;;;;;6220657;28;20147;-57
2023/06/06 02:52:23;;;;;;;19.13;8.40;;;;;;;;;;6218106;28;20405;-57
2023/06/06 02:55:23;;;;;;;20.90;8.43;;;;;;;;;;6222827;28;20041;-57
2023/06/06 02:58:28;;;;;;;17.20;8.60;;;;;;;;;;6222953;28;20040;-57
2023/06/06 03:01:30;;;;;;;20.58;8.73;;;;;;;;;;6222110;28;20042;-57
2023/06/06 03:04:31;;;;;;;18.95;8.30;;;;;;;;;;6221624;28;20041;-56
2023/06/06 03:07:32;;;;;;;13.93;7.70;;;;;;;;;;6220022;28;20089;-57
2023/06/06 03:10:32;;;;;;;21.23;8.88;;;;;;;;;;6221712;28;20053;-47
2023/06/06 03:13:33;;;;;;;16.50;8.30;;;;;;;;;;6221384;28;20042;-49
2023/06/06 03:16:35;;;;;;;20.60;8.80;;;;;;;;;;6219981;28;20140;-50
2023/06/06 03:19:36;;;;;;;;;;;;;;;;;;6221456;28;20045;-52
2023/06/06 03:22:36;;;;;;;15.30;7.90;;;;;;;;;;6221311;28;19929;-55
2023/06/06 03:25:45;;;;;;;17.45;7.97;;;;;;;;;;6220959;28;20080;-58
2023/06/06 03:28:46;;;;;;;16.70;7.78;;;;;;;;;;6220759;28;20155;-55
2023/06/06 03:31:49;;;;;;;19.15;8.52;;;;;;;;;;6221800;28;20994;-56
2023/06/06 03:34:51;;;;;;;15.63;7.93;;;;;;;;;;6220962;28;20043;-57
2023/06/06 03:37:55;;;;;;;15.82;8.20;;;;;;;;;;6219803;28;20058;-56
2023/06/06 03:40:56;;;;;;;19.88;9.00;;;;;;;;;;6222399;28;20116;-50
2023/06/06 03:43:58;;;;;;;16.77;8.18;;;;;;;;;;6218566;28;20049;-57
2023/06/06 03:46:59;;;;;;;22.50;8.63;;;;;;;;;;6222335;28;20102;-57
2023/06/06 03:50:00;;;;;;;19.50;8.18;;;;;;;;;;6219271;28;20439;-57
2023/06/06 03:53:01;;;;;;;18.27;7.60;;;;;;;;;;6219503;28;20065;-57
2023/06/06 03:56:04;;;;;;;16.10;7.60;;;;;;;;;;6220764;28;20420;-55
2023/06/06 03:59:11;;;;;;;16.42;7.18;;;;;;;;;;6222524;28;20042;-50
2023/06/06 04:02:11;;;;;;;17.15;7.05;;;;;;;;;;6221303;28;20037;-58
2023/06/06 04:05:13;;;;;;;16.02;8.27;;;;;;;;;;6217830;28;20484;-56
2023/06/06 04:08:13;;;;;;;20.60;7.90;;;;;;;;;;6219011;28;20470;-57
2023/06/06 04:11:14;;;;;;;17.30;6.83;;;;;;;;;;6220974;28;20175;-54
2023/06/06 04:14:15;;;;;;;14.00;6.83;;;;;;;;;;6219369;28;20486;-55
2023/06/06 04:17:17;;;;;;;12.25;5.95;;;;;;;;;;6221362;28;20038;-57
2023/06/06 04:20:18;;;;;;;17.38;6.82;;;;;;;;;;6220617;28;20077;-44
2023/06/06 04:23:20;;;;;;;14.13;6.28;;;;;;;;;;6228516;28;20045;-54
2023/06/06 04:26:24;;;;;;;;;;;;;;;;;;6219916;28;20073;-55
2023/06/06 04:29:26;;;;;;;11.27;5.93;;;;;;;;;;6219074;28;19921;-54
2023/06/06 04:32:26;;;;;;;14.10;5.83;;;;;;;;;;6218755;28;20505;-58
2023/06/06 04:35:27;;;;;;;12.52;5.88;;;;;;;;;;6231773;28;20299;-52
2023/06/06 04:38:29;;;;;;;15.67;6.43;;;;;;;;;;6231087;28;20053;-55
2023/06/06 04:41:31;;;;;;;14.75;6.93;;;;;;;;;;6231548;28;20058;-58
2023/06/06 04:44:32;;;;;;;15.48;6.93;;;;;;;;;;6226132;28;20041;-58
2023/06/06 04:47:35;;;;;;;14.63;6.00;;;;;;;;;;6237282;28;20048;-57
2023/06/06 04:50:35;;;;;;;;;;;;;;;;;;6234316;28;21473;-53
2023/06/06 04:53:43;;;;;;;15.90;6.00;;;;;;;;;;6231861;28;19924;-57
2023/06/06 04:56:45;;;;;;;18.13;5.90;;;;;;;;;;6229617;28;20413;-56
2023/06/06 04:59:51;;;;;;;19.38;5.97;;;;;;;;;;6225863;28;20049;-55
2023/06/06 05:02:51;;;;;;;24.10;7.20;;;;;;;;;;6225343;28;20409;-47
2023/06/06 05:05:52;;;;;;;10.27;5.40;;;;;;;;;;6232441;28;20040;-49
2023/06/06 05:08:54;;;;;;;13.93;5.20;;;;;;;;;;6231213;28;20157;-59
2023/06/06 05:11:56;;;;;;;13.90;5.82;;;;;;;;;;6221240;28;20072;-57
2023/06/06 05:14:56;;;;;;;11.95;5.05;;;;;;;;;;6233582;28;20041;-59
2023/06/06 05:17:57;;;;;;;13.00;5.30;;;;;;;;;;6234307;28;20053;-55
2023/06/06 05:21:02;;;;;;;8.85;5.30;;;;;;;;;;6233839;28;20477;-58
2023/06/06 05:24:02;;;;;;;11.48;5.35;;;;;;;;;;6234451;28;20056;-55
2023/06/06 05:27:03;;;;;;;10.33;5.70;;;;;;;;;;6230442;28;20042;-59
2023/06/06 05:30:05;;;;;;;16.20;5.80;;;;;;;;;;6230964;28;20045;-56
2023/06/06 05:33:05;;;;;;;11.80;5.35;;;;;;;;;;6230261;28;20746;-59
2023/06/06 05:36:06;;;;;;;11.47;5.43;;;;;;;;;;6227895;28;20140;-58
2023/06/06 05:39:07;;;;;;;16.97;5.63;;;;;;;;;;6233418;28;20400;-58
2023/06/06 05:42:08;;;;;;;12.80;5.80;;;;;;;;;;6229072;28;20041;-56
2023/06/06 05:45:09;;;;;;;13.40;5.70;;;;;;;;;;6232155;28;20046;-56
2023/06/06 05:48:10;;;;;;;14.80;6.22;;;;;;;;;;6232872;28;20137;-55
2023/06/06 05:51:10;;;;;;;15.20;6.60;;;;;;;;;;6230933;28;20049;-57
2023/06/06 05:54:14;;;;;;;12.40;6.10;;;;;;;;;;6223807;28;20075;-60
2023/06/06 05:57:19;;;;;;;14.73;6.20;;;;;;;;;;6235931;28;20397;-60
2023/06/06 06:00:20;;;;;;;14.32;5.53;;;;;;;;;;6236233;28;20565;-49
2023/06/06 06:03:20;;;;;;;10.57;5.47;;;;;;;;;;6221948;28;20049;-60
2023/06/06 06:06:21;;;;;;;14.07;5.60;;;;;;;;;;6220684;28;20049;-57
2023/06/06 06:09:22;;;;;;;15.40;5.60;;;;;;;;;;6221178;28;20057;-60
2023/06/06 06:12:23;;;;;;;17.30;5.40;;;;;;;;;;6223081;28;20742;-57
2023/06/06 06:15:24;;;;;;;14.67;5.20;;;;;;;;;;6219462;28;20046;-60
2023/06/06 06:18:25;;;;;;;15.30;5.07;;;;;;;;;;6220389;28;20485;-54
2023/06/06 06:21:26;;;;;;;10.53;5.50;;;;;;;;;;6222910;28;20120;-59
2023/06/06 06:24:30;;;;;;;16.07;4.77;;;;;;;;;;6220239;28;20045;-58
2023/06/06 06:27:31;;;;;;;13.02;5.13;;;;;;;;;;6220247;28;20042;-57
2023/06/06 06:30:31;;;;;;;12.95;5.30;;;;;;;;;;6215444;28;20069;-49
2023/06/06 06:33:33;;;;;;;20.70;5.20;;;;;;;;;;6219207;28;20489;-59
2023/06/06 06:36:34;;;;;;;10.45;4.90;;;;;;;;;;6218198;28;20716;-58
2023/06/06 06:39:34;;;;;;;12.97;5.20;;;;;;;;;;6222379;28;20108;-58
2023/06/06 06:42:40;;;;;;;12.43;5.93;;;;;;;;;;6223131;28;20125;-58
2023/06/06 06:45:40;;;;;;;11.55;5.70;;;;;;;;;;6219992;28;20041;-59
2023/06/06 06:48:45;;;;;;;14.07;5.20;;;;;;;;;;6221917;28;20941;-52
2023/06/06 06:51:47;;;;;;;17.33;5.50;;;;;;;;;;6217477;28;20056;-59
2023/06/06 06:54:58;;;;;;;11.27;5.22;;;;;;;;;;6220542;28;20577;-53
2023/06/06 06:57:59;;;;;;;10.25;5.50;;;;;;;;;;6219637;28;20053;-53
2023/06/06 07:01:02;;;;;;;10.77;5.20;;;;;;;;;;6219115;28;20137;-50
2023/06/06 07:04:04;;;;;;;10.25;4.82;;;;;;;;;;6220155;28;20064;-59
2023/06/06 07:07:06;;;;;;;13.98;5.32;;;;;;;;;;6215844;28;20475;-56
2023/06/06 07:10:07;;;;;;;12.88;5.63;;;;;;;;;;6230265;28;20045;-57
2023/06/06 07:13:07;;;;;;;12.57;5.57;;;;;;;;;;6222768;28;20420;-50
2023/06/06 07:16:09;;;;;;;12.50;5.17;;;;;;;;;;6217347;28;20103;-57
2023/06/06 07:19:09;;;;;;;14.95;5.90;;;;;;;;;;6220350;28;20052;-54
2023/06/06 07:22:10;;;;;;;11.77;5.80;;;;;;;;;;6223477;28;20037;-54
2023/06/06 07:25:11;;;;;;;15.07;6.47;;;;;;;;;;6219005;28;20045;-61
2023/06/06 07:28:13;;;;;;;12.97;6.13;;;;;;;;;;6216911;28;20042;-57
2023/06/06 07:31:15;;;;;;;15.00;5.80;;;;;;;;;;6220777;28;20038;-58
2023/06/06 07:34:15;;;;;;;10.60;5.93;;;;;;;;;;6219795;28;20065;-55
2023/06/06 07:37:16;;;;;;;14.93;5.95;;;;;;;;;;6216193;28;20160;-58
2023/06/06 07:40:17;;;;;;;11.20;6.37;;;;;;;;;;6219837;28;20050;-60
2023/06/06 07:43:17;;;;;;;11.70;5.67;;;;;;;;;;6216325;28;20038;-55
2023/06/06 07:46:18;;;;;;;12.70;6.03;;;;;;;;;;6217338;28;20049;-61
2023/06/06 07:49:19;;;;;;;19.03;6.57;;;;;;;;;;6218910;28;20145;-59
2023/06/06 07:52:20;;;;;;;11.90;6.30;;;;;;;;;;6216832;28;20060;-53
2023/06/06 07:55:21;;;;;;;13.30;6.43;;;;;;;;;;6219990;28;20063;-57
2023/06/06 07:58:25;;;;;;;12.63;6.03;;;;;;;;;;6216395;28;20038;-59
2023/06/06 08:01:27;;;;;;;13.77;5.82;;;;;;;;;;6219999;28;20037;-53
2023/06/06 08:04:27;;;;;;;14.17;6.90;;;;;;;;;;6220277;28;20087;-57
2023/06/06 08:07:28;;;;;;;15.33;6.30;;;;;;;;;;6217403;28;20786;-58
2023/06/06 08:10:28;;;;;;;19.53;6.90;;;;;;;;;;6218541;28;20053;-55
2023/06/06 08:13:29;;;;;;;12.80;6.73;;;;;;;;;;6219610;28;20097;-54
2023/06/06 08:16:29;;;;;;;15.23;6.27;;;;;;;;;;6213795;28;20057;-57
2023/06/06 08:19:30;;;;;;;14.10;6.40;;;;;;;;;;6214879;28;20942;-58
2023/06/06 08:22:31;;;;;;;10.13;6.73;;;;;;;;;;6216480;28;20046;-55
2023/06/06 08:25:32;;;;;;;10.53;6.70;;;;;;;;;;6217974;28;20038;-53
2023/06/06 08:28:32;;;;;;;12.83;6.53;;;;;;;;;;6215256;28;20049;-57
2023/06/06 08:31:33;;;;;;;11.07;6.03;;;;;;;;;;6218092;28;20034;-55
2023/06/06 09:25:47;;;;;;;12.45;6.78;;;;;;;;;;6297517;27;20790;-58
2023/06/06 09:28:48;;;;;;;13.48;6.70;;;;;;;;;;6279602;28;20075;-59
2023/06/06 09:31:49;;;;;;;13.93;6.67;;;;;;;;;;6285106;28;20106;-60
2023/06/06 09:34:50;;;;;;;15.30;6.80;;;;;;;;;;6284777;28;20102;-58
2023/06/06 09:37:52;;;;;;;14.57;6.50;;;;;;;;;;6282919;28;20055;-59
2023/06/06 09:40:53;;;;;;;16.75;7.05;;;;;;;;;;6284851;28;20483;-58
2023/06/06 09:43:53;;;;;;;16.53;6.43;;;;;;;;;;6283029;28;20036;-60
2023/06/06 09:46:58;;;;;;;13.97;7.03;;;;;;;;;;6284058;28;20068;-52
2023/06/06 09:49:59;;;;;;;14.18;6.78;;;;;;;;;;6281999;28;20033;-57
2023/06/06 09:53:00;;;;;;;11.10;6.53;;;;;;;;;;6283998;28;20045;-47
2023/06/06 09:56:03;;;;;;;12.67;6.60;;;;;;;;;;6281536;28;20049;-60
2023/06/06 09:59:06;;;;;;;14.82;6.60;;;;;;;;;;6282046;28;20423;-59
2023/06/06 10:02:09;;;;;;;12.50;6.28;;;;;;;;;;6282954;28;20056;-59
2023/06/06 10:05:15;;;;;;;11.93;5.78;;;;;;;;;;6284499;28;20574;-59
2023/06/06 10:08:18;;;;;;;8.73;5.95;;;;;;;;;;6283945;28;20135;-61
2023/06/06 10:11:21;;;;;;;9.55;5.78;;;;;;;;;;6280487;28;20139;-60
2023/06/06 10:14:21;;;;;;;11.55;6.05;;;;;;;;;;6279323;28;20485;-59
2023/06/06 10:17:24;;;;;;;15.70;7.15;;;;;;;;;;6285820;28;20037;-60
2023/06/06 10:20:26;;;;;;;14.40;6.80;;;;;;;;;;6280405;28;20049;-59
2023/06/06 10:23:26;;;;;;;13.60;6.68;;;;;;;;;;6279354;28;20110;-59
2023/06/06 10:26:32;;;;;;;13.83;6.23;;;;;;;;;;6266166;28;20555;-59
2023/06/06 10:29:47;;;;;;;14.90;6.70;;;;;;;;;;6269407;28;20078;-59
2023/06/06 10:33:06;;;;;;;10.73;6.85;;;;;;;;;;6263836;28;20491;-59
2023/06/06 10:36:08;;;;;;;16.60;7.28;;;;;;;;;;6263479;28;20041;-60
2023/06/06 10:39:15;;;;;;;;;;;;;;;;;;6263636;28;20130;-58
2023/06/06 10:42:16;;;;;;;13.52;7.57;;;;;;;;;;6263479;28;20299;-58
2023/06/06 10:45:42;;;;;;;12.30;7.33;;;;;;;;;;6261305;28;20060;-59
2023/06/06 10:48:48;;;;;;;16.00;8.15;;;;;;;;;;6264488;28;20194;-59
2023/06/06 10:51:49;;;;;;;16.98;8.10;;;;;;;;;;6264305;28;20065;-59
2023/06/06 10:54:50;;;;;;;14.60;7.90;;;;;;;;;;6266271;28;20059;-56
2023/06/06 10:57:52;;;;;;;16.07;7.83;;;;;;;;;;6267516;28;20511;-54
2023/06/06 11:01:04;;;;;;;13.68;7.90;;;;;;;;;;6258203;28;20045;-59
2023/06/06 11:04:17;;;;;;;15.98;8.35;;;;;;;;;;6258217;28;20084;-56
2023/06/06 11:07:18;;;;;;;17.55;8.05;;;;;;;;;;6257278;28;20037;-55
2023/06/06 11:10:22;;;;;;;14.37;8.97;;;;;;;;;;6255333;28;20041;-59
2023/06/06 11:13:26;;;;;;;12.60;8.40;;;;;;;;;;6257607;28;20483;-59
2023/06/06 11:16:28;;;;;;;16.40;8.93;;;;;;;;;;6258535;28;20574;-58
2023/06/06 11:19:31;;;;;;;17.58;9.25;;;;;;;;;;6261220;28;20059;-60
2023/06/06 11:22:33;;;;;;;23.30;9.93;;;;;;;;;;6257413;28;20036;-58
2023/06/06 11:25:35;;;;;;;13.75;9.55;;;;;;;;;;6254763;28;20060;-54
2023/06/06 11:28:37;;;;;;;22.30;10.23;;;;;;;;;;6255348;28;20097;-58
2023/06/06 11:31:38;;;;;;;18.45;9.45;;;;;;;;;;6255473;28;20082;-60
2023/06/06 11:34:39;;;;;;;16.40;9.70;;;;;;;;;;6256155;28;20438;-61
2023/06/06 11:37:40;;;;;;;13.27;7.90;;;;;;;;;;6257755;28;20075;-56
2023/06/06 11:40:40;;;;;;;10.33;6.60;;;;;;;;;;6253201;28;20427;-59
2023/06/06 11:43:51;;;;;;;7.00;4.60;;;;;;;;;;6254837;28;20089;-58
2023/06/06 11:46:53;;;;;;;8.63;4.82;;;;;;;;;;6257514;28;20069;-58
2023/06/06 11:49:54;;;;;;;11.07;5.40;;;;;;;;;;6255780;28;20219;-62
2023/06/06 11:52:54;;;;;;;8.53;5.00;;;;;;;;;;6259790;28;20053;-60
2023/06/06 11:55:55;;;;;;;8.83;5.00;;;;;;;;;;6257699;28;20045;-55
2023/06/06 11:58:56;;;;;;;8.57;5.47;;;;;;;;;;6255592;28;20052;-57
2023/06/06 12:01:58;;;;;;;9.80;5.20;;;;;;;;;;6254915;28;20044;-52
2023/06/06 12:04:58;;;;;;;;;;;;;;;;;;6255507;28;20517;-59
2023/06/06 12:07:59;;;;;;;10.85;5.78;;;;;;;;;;6255243;28;20233;-60
2023/06/06 12:11:20;;;;;;;8.27;5.63;;;;;;;;;;6255814;28;20180;-60
2023/06/06 12:14:26;;;;;;;9.27;5.32;;;;;;;;;;6256297;28;20113;-56
2023/06/06 12:17:28;;;;;;;11.65;5.20;;;;;;;;;;6257158;28;20052;-56
2023/06/06 12:20:29;;;;;;;13.77;5.68;;;;;;;;;;6257373;28;20148;-59
2023/06/06 12:23:30;;;;;;;8.83;5.90;;;;;;;;;;6254341;28;20041;-57
2023/06/06 12:26:42;;;;;;;;;;;;;;;;;;6256908;28;20036;-57
2023/06/06 12:29:50;;;;;;;9.60;6.47;;;;;;;;;;6259050;28;20407;-60
2023/06/06 12:32:53;;;;;;;9.35;6.47;;;;;;;;;;6262908;28;20145;-60
2023/06/06 12:35:53;;;;;;;12.90;7.00;;;;;;;;;;6257029;28;20044;-58
2023/06/06 12:39:08;;;;;;;217.23;125.77;;;;;;;;;;6256652;28;20466;-59
2023/06/06 12:42:19;;;;;;;17.30;12.70;;;;;;;;;;6254151;28;20041;-52
2023/06/06 12:45:21;;;;;;;30.15;23.45;;;;;;;;;;6255597;28;20045;-55
2023/06/06 12:48:25;;;;;;;132.45;105.22;;;;;;;;;;6255628;28;20048;-52
2023/06/06 12:51:26;;;;;;;15.77;12.10;;;;;;;;;;6254510;28;20041;-58
2023/06/06 12:54:27;;;;;;;28.63;24.57;;;;;;;;;;6254620;28;20032;-55
2023/06/06 12:57:27;;;;;;;15.93;13.20;;;;;;;;;;6255237;28;20061;-52
2023/06/06 13:00:28;;;;;;;15.33;11.80;;;;;;;;;;6257188;28;20519;-56
2023/06/06 13:03:29;;;;;;;16.20;10.15;;;;;;;;;;6256271;28;20102;-58
2023/06/06 13:06:30;;;;;;;12.47;9.43;;;;;;;;;;6256004;28;20884;-58
2023/06/06 13:09:31;;;;;;;17.80;9.73;;;;;;;;;;6253977;28;20424;-56
2023/06/06 13:12:32;;;;;;;14.50;10.73;;;;;;;;;;6254160;28;20037;-59
2023/06/06 13:15:33;;;;;;;20.60;14.40;;;;;;;;;;6253772;28;20074;-55
2023/06/06 13:18:38;;;;;;;13.40;9.03;;;;;;;;;;6256354;28;20033;-50
2023/06/06 13:21:38;;;;;;;16.80;10.05;;;;;;;;;;6256599;28;20037;-53
2023/06/06 13:24:39;;;;;;;14.17;9.17;;;;;;;;;;6252151;28;20098;-47
2023/06/06 13:27:40;;;;;;;13.43;8.00;;;;;;;;;;6240634;28;20040;-55
2023/06/06 13:30:40;;;;;;;15.13;8.47;;;;;;;;;;6250861;28;20048;-52
2023/06/06 13:33:41;;;;;;;13.20;8.20;;;;;;;;;;6241712;28;20148;-53
2023/06/06 13:36:42;;;;;;;13.97;8.63;;;;;;;;;;6246357;28;20087;-53
2023/06/06 13:39:42;;;;;;;14.17;8.57;;;;;;;;;;6245103;28;20563;-46
2023/06/06 13:42:44;;;;;;;18.73;13.87;;;;;;;;;;6244002;28;20037;-49
2023/06/06 13:45:44;;;;;;;13.38;9.35;;;;;;;;;;6244070;28;20186;-51
2023/06/06 13:48:48;;;;;;;16.13;10.80;;;;;;;;;;6245586;28;20045;-55
2023/06/06 13:51:48;;;;;;;14.60;9.80;;;;;;;;;;6246772;28;20499;-54
2023/06/06 13:54:51;;;;;;;14.27;11.63;;;;;;;;;;6244311;28;20123;-55
2023/06/06 13:57:56;;;;;;;11.35;7.32;;;;;;;;;;6244505;28;20109;-53
2023/06/06 14:00:57;;;;;;;10.93;7.07;;;;;;;;;;6248693;28;20080;-53
2023/06/06 14:04:00;;;;;;;10.80;7.27;;;;;;;;;;6249181;28;20486;-55
2023/06/06 14:07:00;;;;;;;11.38;7.15;;;;;;;;;;6248060;28;20086;-55
2023/06/06 14:10:01;;;;;;;11.37;6.90;;;;;;;;;;6249075;28;20053;-54
2023/06/06 14:13:02;;;;;;;9.47;6.27;;;;;;;;;;6248588;28;20045;-49
2023/06/06 14:16:03;;;;;;;14.73;9.45;;;;;;;;;;6247576;28;20396;-54
2023/06/06 14:19:04;;;;;;;10.43;7.10;;;;;;;;;;6249688;28;20049;-52
2023/06/06 14:22:24;;;;;;;9.20;6.73;;;;;;;;;;6247764;28;20540;-53
2023/06/06 14:25:24;;;;;;;11.10;6.63;;;;;;;;;;6247738;28;20053;-53
2023/06/06 14:28:25;;;;;;;12.27;6.97;;;;;;;;;;6249887;28;20052;-57
2023/06/06 14:31:26;;;;;;;13.87;7.40;;;;;;;;;;6249902;28;20046;-54
2023/06/06 14:34:26;;;;;;;10.43;6.60;;;;;;;;;;6248622;28;20040;-55
2023/06/06 14:37:28;;;;;;;15.47;10.23;;;;;;;;;;6247678;28;20049;-51
2023/06/06 14:40:28;;;;;;;9.38;6.30;;;;;;;;;;6248746;28;20059;-57
2023/06/06 14:43:29;;;;;;;9.63;6.00;;;;;;;;;;6249735;28;20493;-54
2023/06/06 14:46:30;;;;;;;10.27;6.17;;;;;;;;;;6245214;28;20096;-58
2023/06/06 14:49:30;;;;;;;9.57;5.50;;;;;;;;;;6248926;28;20310;-57
2023/06/06 14:52:31;;;;;;;10.83;6.30;;;;;;;;;;6251503;28;20109;-53
2023/06/06 14:55:31;;;;;;;8.77;5.23;;;;;;;;;;6251455;28;20044;-55
2023/06/06 14:58:32;;;;;;;7.83;4.50;;;;;;;;;;6250710;28;20060;-51
2023/06/06 15:01:34;;;;;;;8.17;5.50;;;;;;;;;;6255370;28;20045;-46
2023/06/06 15:04:35;;;;;;;10.98;5.80;;;;;;;;;;6253548;28;20056;-58
2023/06/06 15:07:36;;;;;;;9.53;5.80;;;;;;;;;;6253375;28;20514;-57
2023/06/06 15:10:37;;;;;;;11.33;6.20;;;;;;;;;;6256039;28;20389;-56
2023/06/06 15:13:37;;;;;;;10.30;6.17;;;;;;;;;;6255136;28;20052;-57
2023/06/06 15:16:38;;;;;;;9.83;6.57;;;;;;;;;;6254070;28;20124;-57
2023/06/06 15:19:43;;;;;;;11.53;6.50;;;;;;;;;;6255923;28;20053;-54
2023/06/06 15:22:43;;;;;;;9.77;5.75;;;;;;;;;;6255735;28;20376;-57
2023/06/06 15:25:46;;;;;;;10.03;6.53;;;;;;;;;;6254660;28;20110;-57
2023/06/06 15:28:47;;;;;;;10.38;6.70;;;;;;;;;;6255294;28;20044;-55
2023/06/06 15:31:48;;;;;;;12.80;6.40;;;;;;;;;;6256977;28;20120;-55
2023/06/06 15:34:49;;;;;;;13.13;6.40;;;;;;;;;;6252951;28;20052;-55
2023/06/06 15:37:50;;;;;;;8.47;5.70;;;;;;;;;;6253802;28;20068;-55
2023/06/06 15:40:51;;;;;;;;;;;;;;;;;;6256593;28;20044;-53
2023/06/06 15:43:56;;;;;;;10.95;7.85;;;;;;;;;;6255181;28;20403;-59
2023/06/06 15:46:58;;;;;;;9.82;6.43;;;;;;;;;;6253425;28;20053;-55
2023/06/06 15:49:58;;;;;;;10.32;5.90;;;;;;;;;;6255910;28;20055;-50
2023/06/06 15:52:59;;;;;;;11.07;7.23;;;;;;;;;;6254844;28;20587;-58
2023/06/06 15:56:00;;;;;;;11.43;6.27;;;;;;;;;;6254060;28;20107;-55
2023/06/06 15:59:00;;;;;;;10.63;6.37;;;;;;;;;;6255529;28;20404;-54
2023/06/06 16:02:01;;;;;;;11.37;8.13;;;;;;;;;;6256492;28;20107;-55
2023/06/06 16:05:02;;;;;;;10.50;6.80;;;;;;;;;;6253388;28;20590;-54
2023/06/06 16:08:02;;;;;;;12.63;6.80;;;;;;;;;;6255481;28;20979;-53
2023/06/06 16:11:03;;;;;;;13.10;6.80;;;;;;;;;;6249868;28;20431;-54
2023/06/06 16:14:04;;;;;;;12.60;7.17;;;;;;;;;;6244584;28;21241;-50
2023/06/06 16:17:05;;;;;;;10.87;6.87;;;;;;;;;;6243501;28;20047;-52
2023/06/06 16:20:07;;;;;;;14.10;7.40;;;;;;;;;;6245167;28;20487;-49
2023/06/06 16:23:08;;;;;;;11.15;6.68;;;;;;;;;;6243480;28;20052;-53
2023/06/06 16:26:08;;;;;;;11.77;6.70;;;;;;;;;;6241710;28;20052;-57
2023/06/06 16:29:09;;;;;;;13.17;7.30;;;;;;;;;;6244910;28;20045;-49
2023/06/06 16:32:10;;;;;;;11.70;6.93;;;;;;;;;;6243793;28;20094;-58
2023/06/06 16:35:11;;;;;;;13.60;7.05;;;;;;;;;;6243065;28;20474;-50
2023/06/06 16:38:11;;;;;;;10.80;7.33;;;;;;;;;;6243340;28;20049;-55
2023/06/06 16:41:12;;;;;;;12.57;7.43;;;;;;;;;;6243771;28;20041;-48
2023/06/06 16:44:13;;;;;;;12.33;7.93;;;;;;;;;;6243500;28;20044;-51
2023/06/06 16:47:16;;;;;;;;;;;;;;;;;;6242982;28;20045;-56
2023/06/06 16:50:17;;;;;;;;;;;;;;;;;;6245969;28;20008;-52
2023/06/06 16:53:17;;;;;;;11.90;7.40;;;;;;;;;;6244473;28;20282;-51
2023/06/06 16:56:18;;;;;;;11.97;7.83;;;;;;;;;;6239952;28;20053;-54
2023/06/06 16:59:20;;;;;;;10.70;7.00;;;;;;;;;;6244194;28;20620;-55
2023/06/06 17:02:23;;;;;;;12.90;8.03;;;;;;;;;;6244591;28;20052;-52
2023/06/06 17:05:24;;;;;;;12.07;7.40;;;;;;;;;;6244452;28;20049;-57
2023/06/06 17:08:25;;;;;;;9.70;6.93;;;;;;;;;;6243152;28;20041;-49
2023/06/06 17:11:26;;;;;;;15.70;8.10;;;;;;;;;;6244646;28;20396;-51
2023/06/06 17:14:28;;;;;;;11.63;7.27;;;;;;;;;;6242850;28;20041;-49
2023/06/06 17:17:28;;;;;;;11.38;7.18;;;;;;;;;;6242803;28;20059;-54
2023/06/06 17:20:29;;;;;;;11.40;7.33;;;;;;;;;;6252104;28;20053;-53
2023/06/06 17:23:30;;;;;;;12.60;7.00;;;;;;;;;;6252757;28;20082;-57
2023/06/06 17:26:30;;;;;;;12.30;6.80;;;;;;;;;;6245887;28;20416;-50
2023/06/06 17:29:31;;;;;;;11.77;6.77;;;;;;;;;;6248312;28;20523;-56
2023/06/06 17:32:32;;;;;;;10.57;6.90;;;;;;;;;;6244564;28;20545;-56
2023/06/06 17:35:33;;;;;;;12.23;7.18;;;;;;;;;;6241630;28;20033;-58
2023/06/06 17:38:33;;;;;;;11.77;6.73;;;;;;;;;;6256835;28;20055;-49
2023/06/06 17:41:35;;;;;;;11.73;7.13;;;;;;;;;;6259533;28;20435;-57
2023/06/06 17:44:35;;;;;;;10.07;6.72;;;;;;;;;;6257265;28;20462;-47
2023/06/06 17:47:36;;;;;;;11.47;7.77;;;;;;;;;;6256598;28;20138;-52
2023/06/06 17:50:37;;;;;;;11.53;7.53;;;;;;;;;;6259295;28;20381;-53
2023/06/06 17:53:37;;;;;;;10.97;7.40;;;;;;;;;;6258082;28;20082;-56
2023/06/06 17:56:38;;;;;;;10.03;7.80;;;;;;;;;;6257468;28;20073;-49
2023/06/06 17:59:39;;;;;;;12.00;7.60;;;;;;;;;;6256753;28;20571;-50
2023/06/06 18:02:39;;;;;;;15.03;7.93;;;;;;;;;;6259301;28;20045;-53
2023/06/06 18:05:40;;;;;;;12.57;8.10;;;;;;;;;;6265714;28;20048;-52
2023/06/06 18:08:41;;;;;;;14.98;7.85;;;;;;;;;;6257450;28;20076;-52
2023/06/06 18:11:43;;;;;;;13.03;7.73;;;;;;;;;;6263232;28;20518;-56
2023/06/06 18:14:44;;;;;;;;;;;;;;;;;;6259316;28;20438;-56
2023/06/06 18:17:47;;;;;;;13.75;8.05;;;;;;;;;;6267129;28;19959;-51
2023/06/06 18:20:47;;;;;;;14.68;8.57;;;;;;;;;;6270783;28;20695;-52
2023/06/06 18:23:49;;;;;;;11.90;8.30;;;;;;;;;;6265011;28;20055;-51
2023/06/06 18:26:49;;;;;;;14.98;8.52;;;;;;;;;;6259778;28;20049;-49
2023/06/06 18:29:50;;;;;;;17.33;9.20;;;;;;;;;;6266280;28;20518;-56
2023/06/06 18:32:51;;;;;;;15.20;8.60;;;;;;;;;;6266334;28;20076;-54
2023/06/06 18:35:52;;;;;;;14.18;9.13;;;;;;;;;;6261972;28;20045;-47
2023/06/06 18:38:53;;;;;;;14.40;8.60;;;;;;;;;;6262859;28;20049;-57
2023/06/06 18:41:55;;;;;;;13.98;8.63;;;;;;;;;;6266741;28;20049;-57
2023/06/06 18:44:56;;;;;;;13.95;9.10;;;;;;;;;;6260596;28;20048;-58
2023/06/06 18:48:02;;;;;;;16.42;9.40;;;;;;;;;;6260475;28;20052;-57
2023/06/06 18:51:03;;;;;;;16.98;9.80;;;;;;;;;;6260568;28;20072;-56